General Aviation Weather

Text Reports

Enter one or more of the following location identifiers separated by a space:

Zip Code, Four-Character ICAO or Three-Character IATA airport codes.

METAR - Aviation Routine Weather Report
KBIV - Holland, Michigan
Updated at 2:53 PM GMT on July 11, 2014 (10:53 AM EDT):
METAR KBIV 111453Z AUTO 15007KT 10SM CLR 24/14 A3023 RMK AO2 SLP233 T02440144 50004
TAF - Terminal Area Forecast
KBIV - Holland, Michigan
Updated at 2:53 PM GMT on July 11, 2014 (10:53 AM EDT):
No TAF is currently available for this location.
Decoded:
No decoded TAF is available.
PIREP - Pilot Weather Report
KBIV - Holland, Michigan
Updated at 2:53 PM GMT on July 11, 2014 (10:53 AM EDT):
No PIREP is currently available for this location.
AIRMET - Airmens Meteorological Information
KBIV - Holland, Michigan
Updated at 2:53 PM GMT on July 11, 2014 (10:53 AM EDT):
No AIRMET is currently available for this location.
SIGMET - Significant Meteorological Information
KBIV - Holland, Michigan
Updated at 2:53 PM GMT on July 11, 2014 (10:53 AM EDT):
No SIGMET is currently available for this location.
NOTAM - Notice to Airmen
KBIV - Holland, Michigan
Updated at 2:53 PM GMT on July 11, 2014 (10:53 AM EDT):
No NOTAM is currently available for this location.
Forecast Area
KBIV - Holland, Michigan
Updated at 2:53 PM GMT on July 11, 2014 (10:53 AM EDT):
No NOTAM is currently available for this location.
Aviation Weather Maps